createdAt,value
2022-08-03T00:00:31.713Z,99275.00
2022-08-03T00:03:04.495Z,99275.00
2022-08-03T00:05:35.593Z,99273.60
2022-08-03T00:08:03.859Z,99271.20
2022-08-03T00:10:32.784Z,99273.40
2022-08-03T00:13:00.426Z,99275.80
2022-08-03T00:15:28.182Z,99275.60
2022-08-03T00:17:55.781Z,99280.00
2022-08-03T00:20:24.452Z,99275.40
2022-08-03T00:22:52.567Z,99271.00
2022-08-03T00:25:20.479Z,99272.40
2022-08-03T00:27:48.367Z,99272.80
2022-08-03T00:30:18.288Z,99273.20
2022-08-03T00:32:48.852Z,99271.60
2022-08-03T00:35:36.519Z,99269.80
2022-08-03T00:38:05.870Z,99270.20
2022-08-03T00:40:33.662Z,99269.20
2022-08-03T00:43:05.100Z,99272.60
2022-08-03T00:45:39.386Z,99269.60
2022-08-03T00:48:29.787Z,99274.20
2022-08-03T00:50:58.904Z,99272.20
2022-08-03T00:53:27.840Z,99279.40
2022-08-03T00:55:55.516Z,99277.20
2022-08-03T00:58:24.220Z,99273.00
2022-08-03T01:00:52.140Z,99271.20
2022-08-03T01:03:20.030Z,99268.80
2022-08-03T01:06:19.354Z,99272.60
2022-08-03T01:09:11.284Z,99270.80
2022-08-03T01:11:59.988Z,99270.80
2022-08-03T01:15:05.677Z,99273.40
2022-08-03T01:17:56.420Z,99269.60
2022-08-03T01:20:33.812Z,99266.60
2022-08-03T01:23:37.403Z,99267.60
2022-08-03T01:26:51.318Z,99268.60
2022-08-03T01:29:37.932Z,99272.80
2022-08-03T01:33:00.126Z,99268.00
2022-08-03T01:35:39.219Z,99269.20
2022-08-03T01:38:33.247Z,99276.00
2022-08-03T01:41:13.912Z,99270.20
2022-08-03T01:44:27.593Z,99271.40
2022-08-03T01:46:40.350Z,99279.60
2022-08-03T01:49:17.303Z,99272.20
2022-08-03T01:52:03.247Z,99270.00
2022-08-03T01:54:37.845Z,99270.60
2022-08-03T01:57:07.410Z,99270.60
2022-08-03T01:59:37.544Z,99268.60
2022-08-03T02:02:15.322Z,99265.80
2022-08-03T02:04:59.100Z,99263.80
2022-08-03T02:07:29.073Z,99262.20
2022-08-03T02:10:00.314Z,99255.20
2022-08-03T02:12:31.233Z,99251.40
2022-08-03T02:15:01.434Z,99248.40
2022-08-03T02:17:38.721Z,99250.00
2022-08-03T02:20:13.429Z,99251.40
2022-08-03T02:22:43.289Z,99251.40
2022-08-03T02:25:14.445Z,99245.60
2022-08-03T02:28:11.745Z,99253.40
2022-08-03T02:30:44.008Z,99245.40
2022-08-03T02:33:21.404Z,99248.20
2022-08-03T02:35:51.825Z,99246.40
2022-08-03T02:38:26.154Z,99245.60
2022-08-03T02:40:58.442Z,99256.20
2022-08-03T02:43:40.248Z,99252.60
2022-08-03T02:46:22.836Z,99255.00
2022-08-03T02:48:54.602Z,99250.00
2022-08-03T02:51:24.909Z,99255.20
2022-08-03T02:53:55.946Z,99250.80
2022-08-03T02:56:27.368Z,99251.00
2022-08-03T02:58:57.199Z,99255.20
2022-08-03T03:01:27.677Z,99256.80
2022-08-03T03:03:57.579Z,99260.00
2022-08-03T03:06:29.335Z,99260.60
2022-08-03T03:09:00.125Z,99259.40
2022-08-03T03:11:29.357Z,99258.20
2022-08-03T03:13:59.636Z,99265.60
2022-08-03T03:16:31.181Z,99264.60
2022-08-03T03:19:01.855Z,99267.40
2022-08-03T03:21:31.185Z,99267.60
2022-08-03T03:24:00.177Z,99266.80
2022-08-03T03:26:28.536Z,99263.00
2022-08-03T03:28:56.704Z,99261.40
2022-08-03T03:31:24.362Z,99259.20
2022-08-03T03:33:52.277Z,99267.20
2022-08-03T03:36:20.150Z,99265.00
2022-08-03T03:38:47.869Z,99269.60
2022-08-03T03:41:15.573Z,99272.00
2022-08-03T03:43:44.117Z,99271.00
2022-08-03T03:46:14.981Z,99275.40
2022-08-03T03:48:43.130Z,99273.20
2022-08-03T03:51:11.289Z,99276.00
2022-08-03T03:53:39.269Z,99276.60
2022-08-03T03:56:06.834Z,99278.20
2022-08-03T03:58:34.597Z,99286.20
2022-08-03T04:01:02.312Z,99287.00
2022-08-03T04:03:32.453Z,99287.00
2022-08-03T04:06:18.753Z,99291.80
2022-08-03T04:09:18.929Z,99290.20
2022-08-03T04:11:52.872Z,99294.80
2022-08-03T04:14:28.556Z,99292.80
2022-08-03T04:17:04.964Z,99294.00
2022-08-03T04:19:40.590Z,99291.60
2022-08-03T04:22:16.674Z,99294.00
2022-08-03T04:24:58.972Z,99291.80
2022-08-03T04:27:33.208Z,99294.40
2022-08-03T04:30:05.624Z,99294.20
2022-08-03T04:32:35.910Z,99299.20
2022-08-03T04:35:06.061Z,99302.80
2022-08-03T04:37:44.233Z,99297.20
2022-08-03T04:40:25.655Z,99294.60
2022-08-03T04:43:00.017Z,99296.40
2022-08-03T04:45:31.229Z,99297.60
2022-08-03T04:47:59.827Z,99307.20
2022-08-03T04:50:31.171Z,99303.20
2022-08-03T04:52:59.596Z,99301.00
2022-08-03T04:55:30.626Z,99305.40
2022-08-03T04:57:59.633Z,99304.40
2022-08-03T05:00:28.625Z,99302.00
2022-08-03T05:02:56.798Z,99292.00
2022-08-03T05:05:24.614Z,99296.40
2022-08-03T05:07:52.376Z,99293.00
2022-08-03T05:10:20.784Z,99301.00
2022-08-03T05:12:48.882Z,99307.00
2022-08-03T05:15:16.608Z,99304.60
2022-08-03T05:17:44.732Z,99304.00
2022-08-03T05:20:12.810Z,99303.20
2022-08-03T05:22:40.538Z,99306.80
2022-08-03T05:25:08.820Z,99306.60
2022-08-03T05:27:36.548Z,99308.20
2022-08-03T05:30:30.721Z,99308.20
2022-08-03T05:32:53.640Z,99312.00
2022-08-03T05:35:57.846Z,99313.40
2022-08-03T05:38:09.348Z,99312.60
2022-08-03T05:40:37.000Z,99315.80
2022-08-03T05:43:04.985Z,99313.60
2022-08-03T05:45:32.578Z,99314.00
2022-08-03T05:48:00.202Z,99319.80
2022-08-03T05:50:27.841Z,99320.80
2022-08-03T05:52:57.840Z,99323.00
2022-08-03T05:55:25.891Z,99321.20
2022-08-03T05:57:56.758Z,99319.00
2022-08-03T06:00:25.725Z,99322.60
2022-08-03T06:02:53.503Z,99325.00
2022-08-03T06:05:21.257Z,99329.40
2022-08-03T06:07:48.900Z,99325.40
2022-08-03T06:10:35.738Z,99327.60
2022-08-03T06:13:04.597Z,99325.80
2022-08-03T06:15:33.471Z,99323.60
2022-08-03T06:18:02.237Z,99325.00
2022-08-03T06:20:30.352Z,99325.60
2022-08-03T06:23:00.274Z,99328.40
2022-08-03T06:25:29.439Z,99322.20
2022-08-03T06:27:57.166Z,99323.00
2022-08-03T06:30:25.557Z,99322.20
2022-08-03T06:32:53.655Z,99318.00
2022-08-03T06:35:21.388Z,99317.60
2022-08-03T06:37:51.748Z,99315.40
2022-08-03T06:40:29.050Z,99323.40
2022-08-03T06:43:04.105Z,99318.80
2022-08-03T06:45:32.301Z,99322.20
2022-08-03T06:48:08.376Z,99322.60
2022-08-03T06:50:40.320Z,99321.60
2022-08-03T06:53:09.893Z,99322.80
2022-08-03T06:55:45.924Z,99325.60
2022-08-03T06:58:13.585Z,99323.40
2022-08-03T07:00:41.223Z,99326.00
2022-08-03T07:03:08.860Z,99322.80
2022-08-03T07:05:36.552Z,99323.40
2022-08-03T07:08:04.594Z,99324.20
2022-08-03T07:10:32.297Z,99323.80
2022-08-03T07:12:59.953Z,99321.20
2022-08-03T07:15:38.410Z,99325.80
2022-08-03T07:18:15.229Z,99320.00
2022-08-03T07:20:42.961Z,99323.00
2022-08-03T07:23:11.563Z,99322.20
2022-08-03T07:25:47.058Z,99322.20
2022-08-03T07:28:15.099Z,99317.60
2022-08-03T07:30:42.787Z,99313.80
2022-08-03T07:33:10.471Z,99312.60
2022-08-03T07:35:38.293Z,99320.60
2022-08-03T07:38:06.078Z,99319.20
2022-08-03T07:40:34.756Z,99318.40
2022-08-03T07:43:03.612Z,99323.60
2022-08-03T07:45:32.165Z,99321.00
2022-08-03T07:48:00.210Z,99320.00
2022-08-03T07:50:27.822Z,99317.60
2022-08-03T07:52:56.132Z,99321.40
2022-08-03T07:55:26.562Z,99321.00
2022-08-03T07:58:24.277Z,99319.20
2022-08-03T08:00:53.295Z,99317.40
2022-08-03T08:03:24.237Z,99315.00
2022-08-03T08:05:51.817Z,99311.20
2022-08-03T08:08:20.570Z,99310.20
2022-08-03T08:10:57.681Z,99320.40
2022-08-03T08:13:26.391Z,99318.60
2022-08-03T08:15:54.106Z,99315.20
2022-08-03T08:18:21.976Z,99315.80
2022-08-03T08:20:50.664Z,99319.60
2022-08-03T08:23:41.874Z,99323.00
2022-08-03T08:26:10.925Z,99318.80
2022-08-03T08:28:39.099Z,99312.20
2022-08-03T08:31:06.851Z,99318.40
2022-08-03T08:34:03.185Z,99320.80
2022-08-03T08:36:24.397Z,99323.20
2022-08-03T08:38:52.142Z,99319.00
2022-08-03T08:41:19.864Z,99315.00
2022-08-03T08:43:47.608Z,99316.20
2022-08-03T08:46:22.794Z,99314.40
2022-08-03T08:48:54.166Z,99312.60
2022-08-03T08:51:43.833Z,99309.60
2022-08-03T08:54:21.972Z,99304.00
2022-08-03T08:56:53.486Z,99312.80
2022-08-03T08:59:22.473Z,99315.80
2022-08-03T09:01:50.034Z,99315.80
2022-08-03T09:04:18.009Z,99318.00
2022-08-03T09:07:04.420Z,99312.20
2022-08-03T09:10:11.789Z,99313.00
2022-08-03T09:12:41.231Z,99317.40
2022-08-03T09:15:28.289Z,99317.60
2022-08-03T09:17:59.390Z,99315.00
2022-08-03T09:20:30.928Z,99306.60
2022-08-03T09:23:06.076Z,99305.20
2022-08-03T09:25:46.564Z,99300.00
2022-08-03T09:28:52.774Z,99299.60
2022-08-03T09:31:08.137Z,99299.20
2022-08-03T09:33:48.278Z,99299.40
2022-08-03T09:36:40.783Z,99292.40
2022-08-03T09:39:15.138Z,99289.80
2022-08-03T09:41:46.801Z,99289.80
2022-08-03T09:44:24.171Z,99287.80
2022-08-03T09:46:56.848Z,99286.20
2022-08-03T09:49:25.505Z,99288.80
2022-08-03T09:52:31.640Z,99287.20
2022-08-03T09:54:43.487Z,99282.80
2022-08-03T09:57:31.539Z,99283.60
2022-08-03T10:00:16.354Z,99279.20
2022-08-03T10:02:45.683Z,99281.80
2022-08-03T10:05:17.742Z,99276.60
2022-08-03T10:07:50.865Z,99276.80
2022-08-03T10:10:31.142Z,99276.20
2022-08-03T10:13:00.508Z,99277.80
2022-08-03T10:16:23.180Z,99278.40
2022-08-03T10:18:16.642Z,99276.20
2022-08-03T10:20:52.373Z,99281.60
2022-08-03T10:23:22.950Z,99272.40
2022-08-03T10:26:00.466Z,99276.20
2022-08-03T10:28:35.435Z,99269.40
2022-08-03T10:31:07.736Z,99267.00
2022-08-03T10:33:51.197Z,99268.80
2022-08-03T10:36:27.468Z,99268.00
2022-08-03T10:38:57.378Z,99273.40
2022-08-03T10:41:39.677Z,99272.40
2022-08-03T10:44:17.745Z,99276.40
2022-08-03T10:46:50.833Z,99267.40
2022-08-03T10:49:35.253Z,99265.60
2022-08-03T10:52:13.331Z,99264.20
2022-08-03T10:55:12.210Z,99260.80
2022-08-03T10:57:56.189Z,99255.00
2022-08-03T11:00:30.401Z,99250.80
2022-08-03T11:03:06.765Z,99246.80
2022-08-03T11:05:42.278Z,99245.40
2022-08-03T11:08:23.029Z,99245.40
2022-08-03T11:10:54.069Z,99249.60
2022-08-03T11:13:26.295Z,99250.20
2022-08-03T11:16:01.606Z,99240.60
2022-08-03T11:18:30.681Z,99239.20
2022-08-03T11:21:00.618Z,99241.40
2022-08-03T11:24:05.372Z,99238.20
2022-08-03T11:26:34.841Z,99238.80
2022-08-03T11:29:29.625Z,99236.20
2022-08-03T11:31:58.130Z,99231.80
2022-08-03T11:34:26.281Z,99230.00
2022-08-03T11:37:22.527Z,99225.80
2022-08-03T11:39:54.733Z,99225.80
2022-08-03T11:42:22.412Z,99219.00
2022-08-03T11:44:55.828Z,99221.80
2022-08-03T11:47:28.098Z,99220.00
2022-08-03T11:50:00.302Z,99219.00
2022-08-03T11:52:36.495Z,99219.00
2022-08-03T11:55:10.029Z,99214.40
2022-08-03T11:59:17.464Z,99216.20
2022-08-03T12:00:31.939Z,99208.20
2022-08-03T12:03:09.884Z,99210.40
2022-08-03T12:05:51.280Z,99213.00
2022-08-03T12:08:32.262Z,99210.60
2022-08-03T12:11:06.586Z,99204.40
2022-08-03T12:14:26.991Z,99205.00
2022-08-03T12:16:38.870Z,99208.00
2022-08-03T12:19:08.165Z,99207.60
2022-08-03T12:21:57.104Z,99206.40
2022-08-03T12:24:28.434Z,99205.20
2022-08-03T12:27:00.118Z,99205.40
2022-08-03T12:29:28.212Z,99200.00
2022-08-03T12:31:56.579Z,99200.40
2022-08-03T12:34:24.509Z,99197.80
2022-08-03T12:36:59.486Z,99199.20
2022-08-03T12:39:30.838Z,99189.60
2022-08-03T12:41:59.075Z,99189.80
2022-08-03T12:44:36.295Z,99188.00
2022-08-03T12:47:06.717Z,99181.80
2022-08-03T12:49:51.750Z,99185.40
2022-08-03T12:52:23.171Z,99180.20
2022-08-03T12:55:01.117Z,99179.60
2022-08-03T12:57:42.450Z,99179.20
2022-08-03T13:00:21.202Z,99175.00
2022-08-03T13:05:54.825Z,99179.40
2022-08-03T13:08:25.619Z,99180.00
2022-08-03T13:10:53.340Z,99173.80
2022-08-03T13:13:39.658Z,99177.80
2022-08-03T13:16:07.337Z,99175.80
2022-08-03T13:18:34.950Z,99175.40
2022-08-03T13:21:02.614Z,99172.80
2022-08-03T13:23:30.268Z,99173.60
2022-08-03T13:25:57.968Z,99174.00
2022-08-03T13:28:25.669Z,99177.20
2022-08-03T13:30:54.954Z,99180.80
2022-08-03T13:33:22.650Z,99172.40
2022-08-03T13:35:50.241Z,99170.40
2022-08-03T13:38:18.117Z,99166.80
2022-08-03T13:40:51.191Z,99167.20
2022-08-03T13:43:20.726Z,99165.80
2022-08-03T13:45:52.329Z,99170.00
2022-08-03T13:48:37.096Z,99170.40
2022-08-03T13:51:21.562Z,99168.60
2022-08-03T13:53:52.230Z,99168.40
2022-08-03T13:56:19.945Z,99167.20
2022-08-03T13:58:47.550Z,99162.60
2022-08-03T14:01:15.538Z,99162.80
2022-08-03T14:03:43.225Z,99156.60
2022-08-03T14:06:10.849Z,99154.40
2022-08-03T14:08:38.552Z,99152.80
2022-08-03T14:11:07.397Z,99149.20
2022-08-03T14:13:35.093Z,99147.60
2022-08-03T14:16:03.259Z,99144.40
2022-08-03T14:18:34.066Z,99147.40
2022-08-03T14:21:06.321Z,99145.40
2022-08-03T14:23:37.680Z,99143.80
2022-08-03T14:26:09.530Z,99138.20
2022-08-03T14:28:37.133Z,99143.20
2022-08-03T14:31:08.406Z,99142.60
2022-08-03T14:33:43.473Z,99141.20
2022-08-03T14:36:11.349Z,99138.40
2022-08-03T14:38:39.042Z,99135.80
2022-08-03T14:41:06.650Z,99135.80
2022-08-03T14:43:39.977Z,99130.40
2022-08-03T14:46:27.672Z,99129.00
2022-08-03T14:50:34.341Z,99127.60
2022-08-03T14:51:51.575Z,99128.80
2022-08-03T14:54:22.923Z,99125.20
2022-08-03T14:56:50.958Z,99122.20
2022-08-03T14:59:18.581Z,99118.00
2022-08-03T15:02:03.144Z,99116.20
2022-08-03T15:04:34.016Z,99114.00
2022-08-03T15:07:01.648Z,99117.00
2022-08-03T15:09:29.392Z,99113.80
2022-08-03T15:11:57.160Z,99114.20
2022-08-03T15:14:32.362Z,99112.60
2022-08-03T15:17:01.486Z,99112.20
2022-08-03T15:20:01.408Z,99113.20
2022-08-03T15:22:20.552Z,99107.40
2022-08-03T15:24:48.697Z,99109.00
2022-08-03T15:27:16.434Z,99109.40
2022-08-03T15:30:05.187Z,99108.00
2022-08-03T15:32:32.086Z,99106.00
2022-08-03T15:35:00.620Z,99105.20
2022-08-03T15:37:28.515Z,99107.40
2022-08-03T15:39:59.442Z,99108.00
2022-08-03T15:42:30.788Z,99105.80
2022-08-03T15:44:59.440Z,99105.60
2022-08-03T15:47:27.634Z,99107.60
2022-08-03T15:49:55.461Z,99107.60
2022-08-03T15:52:23.278Z,99110.40
2022-08-03T15:54:50.921Z,99108.60
2022-08-03T15:57:20.182Z,99107.00
2022-08-03T15:59:48.077Z,99104.60
2022-08-03T16:02:16.748Z,99103.20
2022-08-03T16:04:44.553Z,99097.60
2022-08-03T16:07:14.286Z,99099.40
2022-08-03T16:09:43.978Z,99094.00
2022-08-03T16:12:16.114Z,99095.60
2022-08-03T16:14:53.844Z,99093.40
2022-08-03T16:17:23.610Z,99090.20
2022-08-03T16:19:54.871Z,99093.80
2022-08-03T16:22:26.769Z,99092.20
2022-08-03T16:24:55.041Z,99092.60
2022-08-03T16:27:56.782Z,99093.60
2022-08-03T16:30:18.106Z,99091.20
2022-08-03T16:32:48.973Z,99088.40
2022-08-03T16:35:19.164Z,99088.00
2022-08-03T16:37:56.645Z,99085.80
2022-08-03T16:40:26.170Z,99085.20
2022-08-03T16:42:54.136Z,99083.60
2022-08-03T16:45:21.883Z,99086.20
2022-08-03T16:48:05.337Z,99081.80
2022-08-03T16:50:35.514Z,99083.80
2022-08-03T16:53:09.157Z,99087.00
2022-08-03T16:55:43.323Z,99090.60
2022-08-03T16:58:34.585Z,99094.00
2022-08-03T17:01:21.806Z,99093.40
2022-08-03T17:04:02.534Z,99095.00
2022-08-03T17:06:37.666Z,99093.40
2022-08-03T17:09:28.069Z,99096.00
2022-08-03T17:12:07.550Z,99097.20
2022-08-03T17:14:40.159Z,99097.40
2022-08-03T17:17:19.170Z,99102.60
2022-08-03T17:19:48.876Z,99102.00
2022-08-03T17:22:29.688Z,99112.40
2022-08-03T17:24:59.047Z,99109.40
2022-08-03T17:28:49.758Z,99116.20
2022-08-03T17:30:20.248Z,99121.00
2022-08-03T17:32:52.394Z,99120.60
2022-08-03T17:35:36.593Z,99121.40
2022-08-03T17:38:11.895Z,99122.60
2022-08-03T17:40:50.249Z,99123.80
2022-08-03T17:44:13.250Z,99119.20
2022-08-03T17:46:10.879Z,99124.00
2022-08-03T17:48:41.493Z,99123.40
2022-08-03T17:51:22.588Z,99128.80
2022-08-03T17:54:00.872Z,99131.60
2022-08-03T17:56:46.357Z,99135.20
2022-08-03T17:59:50.576Z,99137.20
2022-08-03T18:02:48.115Z,99142.20
2022-08-03T18:05:21.832Z,99141.20
2022-08-03T18:08:00.890Z,99139.80
2022-08-03T18:10:36.004Z,99144.20
2022-08-03T18:13:10.794Z,99147.80
2022-08-03T18:16:07.481Z,99146.80
2022-08-03T18:18:43.255Z,99149.40
2022-08-03T18:21:16.911Z,99154.20
2022-08-03T18:23:50.267Z,99157.00
2022-08-03T18:26:20.278Z,99161.40
2022-08-03T18:28:53.481Z,99160.20
2022-08-03T18:31:59.789Z,99162.00
2022-08-03T18:34:31.990Z,99164.20
2022-08-03T18:37:07.190Z,99165.00
2022-08-03T18:39:55.543Z,99166.40
2022-08-03T18:42:26.954Z,99175.40
2022-08-03T18:44:58.140Z,99174.80
2022-08-03T18:47:57.022Z,99179.20
2022-08-03T18:50:50.039Z,99182.60
2022-08-03T18:54:02.604Z,99182.80
2022-08-03T18:56:30.972Z,99182.40
2022-08-03T18:59:15.771Z,99184.40
2022-08-03T19:02:01.069Z,99188.80
2022-08-03T19:04:47.668Z,99196.80
2022-08-03T19:07:23.299Z,99196.40
2022-08-03T19:10:06.591Z,99198.20
2022-08-03T19:12:45.737Z,99202.20
2022-08-03T19:15:15.670Z,99210.60
2022-08-03T19:18:07.324Z,99209.00
2022-08-03T19:20:38.501Z,99203.20
2022-08-03T19:23:06.942Z,99206.80
2022-08-03T19:25:39.473Z,99209.40
2022-08-03T19:28:08.967Z,99212.20
2022-08-03T19:30:40.238Z,99213.40
2022-08-03T19:33:14.997Z,99213.20
2022-08-03T19:35:55.090Z,99215.00
2022-08-03T19:38:29.093Z,99215.20
2022-08-03T19:41:03.676Z,99212.80
2022-08-03T19:43:53.013Z,99216.40
2022-08-03T19:46:30.332Z,99217.20
2022-08-03T19:49:15.286Z,99218.80
2022-08-03T19:52:03.222Z,99219.60
2022-08-03T19:54:52.768Z,99219.60
2022-08-03T19:57:25.450Z,99222.80
2022-08-03T19:59:58.077Z,99221.60
2022-08-03T20:02:28.060Z,99223.00
2022-08-03T20:04:59.887Z,99218.60
2022-08-03T20:07:33.715Z,99224.60
2022-08-03T20:10:05.889Z,99223.80
2022-08-03T20:12:39.121Z,99221.20
2022-08-03T20:15:09.179Z,99222.00
2022-08-03T20:17:55.995Z,99220.00
2022-08-03T20:20:33.387Z,99220.80
2022-08-03T20:23:07.598Z,99225.80
2022-08-03T20:25:48.896Z,99221.60
2022-08-03T20:28:35.095Z,99218.20
2022-08-03T20:31:21.604Z,99218.00
2022-08-03T20:33:51.557Z,99218.80
2022-08-03T20:36:19.640Z,99221.00
2022-08-03T20:41:35.482Z,99216.60
2022-08-03T20:44:04.526Z,99221.40
2022-08-03T20:46:44.133Z,99217.80
2022-08-03T20:49:23.047Z,99217.60
2022-08-03T20:51:53.129Z,99216.40
2022-08-03T20:54:30.810Z,99213.60
2022-08-03T20:57:03.809Z,99213.40
2022-08-03T20:59:50.662Z,99213.20
2022-08-03T21:02:29.650Z,99212.00
2022-08-03T21:05:08.639Z,99216.00
2022-08-03T21:08:05.349Z,99212.80
2022-08-03T21:10:40.735Z,99211.40
2022-08-03T21:13:07.250Z,99218.60
2022-08-03T21:13:31.949Z,99221.60
2022-08-03T21:16:12.605Z,99226.40
2022-08-03T21:18:52.816Z,99219.40
2022-08-03T21:21:23.599Z,99221.80
2022-08-03T21:23:54.961Z,99219.60
2022-08-03T21:26:27.468Z,99223.60
2022-08-03T21:28:57.037Z,99219.80
2022-08-03T21:31:26.996Z,99217.60
2022-08-03T21:33:59.530Z,99226.00
2022-08-03T21:36:34.398Z,99223.20
2022-08-03T21:39:05.594Z,99225.60
2022-08-03T21:41:34.913Z,99222.20
2022-08-03T21:44:04.054Z,99227.20
2022-08-03T21:46:39.851Z,99226.20
2022-08-03T21:50:05.316Z,99230.40
2022-08-03T21:52:06.154Z,99230.00
2022-08-03T21:54:42.127Z,99229.80
2022-08-03T21:57:19.892Z,99230.00
2022-08-03T22:00:25.250Z,99228.40
2022-08-03T22:02:57.421Z,99227.20
2022-08-03T22:05:42.723Z,99224.80
2022-08-03T22:08:15.648Z,99226.80
2022-08-03T22:10:44.485Z,99226.80
2022-08-03T22:13:15.072Z,99226.60
2022-08-03T22:15:43.865Z,99224.60
2022-08-03T22:18:11.554Z,99223.00
2022-08-03T22:20:39.379Z,99229.20
2022-08-03T22:23:08.219Z,99227.60
2022-08-03T22:25:39.651Z,99219.80
2022-08-03T22:28:11.637Z,99224.60
2022-08-03T22:30:42.724Z,99221.40
2022-08-03T22:33:14.949Z,99217.80
2022-08-03T22:35:49.016Z,99218.00
2022-08-03T22:38:18.746Z,99217.80
2022-08-03T22:40:50.899Z,99220.00
2022-08-03T22:43:27.248Z,99216.40
2022-08-03T22:46:10.032Z,99214.80
2022-08-03T22:48:40.994Z,99219.40
2022-08-03T22:51:10.459Z,99217.20
2022-08-03T22:53:39.545Z,99219.80
2022-08-03T22:56:08.216Z,99214.00
2022-08-03T22:58:35.915Z,99215.20
2022-08-03T23:01:18.889Z,99216.20
2022-08-03T23:04:00.615Z,99215.20
2022-08-03T23:06:40.491Z,99213.60
2022-08-03T23:09:14.063Z,99212.80
2022-08-03T23:11:45.922Z,99209.00
2022-08-03T23:14:19.108Z,99212.60
2022-08-03T23:16:49.735Z,99215.60
2022-08-03T23:19:25.199Z,99215.80
2022-08-03T23:22:02.173Z,99211.60
2022-08-03T23:24:36.374Z,99214.20
2022-08-03T23:27:08.217Z,99215.20
2022-08-03T23:29:39.017Z,99213.00
2022-08-03T23:32:07.419Z,99211.60
2022-08-03T23:34:58.879Z,99215.00
2022-08-03T23:37:27.229Z,99218.20
2022-08-03T23:39:57.235Z,99217.00
2022-08-03T23:42:26.166Z,99218.20
2022-08-03T23:45:01.120Z,99212.40
2022-08-03T23:47:47.092Z,99212.40
2022-08-03T23:50:16.554Z,99210.80
2022-08-03T23:53:06.257Z,99208.00
2022-08-03T23:56:12.694Z,99203.00
2022-08-03T23:59:11.721Z,99205.00
